createdAt,value
2024-03-18T00:00:48.404Z,522.00
2024-03-18T00:01:48.481Z,520.00
2024-03-18T00:02:48.582Z,516.00
2024-03-18T00:03:48.637Z,517.00
2024-03-18T00:04:48.773Z,518.00
2024-03-18T00:05:48.760Z,519.00
2024-03-18T00:06:48.878Z,519.00
2024-03-18T00:07:48.931Z,518.00
2024-03-18T00:08:49.033Z,516.00
2024-03-18T00:09:49.083Z,516.00
2024-03-18T00:10:49.129Z,518.00
2024-03-18T00:11:49.208Z,519.00
2024-03-18T00:12:49.320Z,517.00
2024-03-18T00:13:49.381Z,519.00
2024-03-18T00:14:49.487Z,520.00
2024-03-18T00:15:49.503Z,522.00
2024-03-18T00:16:49.569Z,521.00
2024-03-18T00:17:49.631Z,521.00
2024-03-18T00:18:49.717Z,522.00
2024-03-18T00:19:49.818Z,522.00
2024-03-18T00:20:49.859Z,524.00
2024-03-18T00:21:49.942Z,523.00
2024-03-18T00:22:50.044Z,523.00
2024-03-18T00:23:50.981Z,518.00
2024-03-18T00:24:50.196Z,518.00
2024-03-18T00:25:50.256Z,516.00
2024-03-18T00:26:50.338Z,515.00
2024-03-18T00:27:50.393Z,516.00
2024-03-18T00:28:50.463Z,514.00
2024-03-18T00:29:50.558Z,516.00
2024-03-18T00:30:50.630Z,518.00
2024-03-18T00:31:50.678Z,516.00
2024-03-18T00:32:50.783Z,514.00
2024-03-18T00:33:50.837Z,513.00
2024-03-18T00:34:50.967Z,513.00
2024-03-18T00:35:51.809Z,514.00
2024-03-18T00:36:51.065Z,516.00
2024-03-18T00:37:51.824Z,517.00
2024-03-18T00:38:51.191Z,517.00
2024-03-18T00:39:51.324Z,519.00
2024-03-18T00:40:51.388Z,519.00
2024-03-18T00:41:51.403Z,519.00
2024-03-18T00:42:51.536Z,518.00
2024-03-18T00:43:51.593Z,518.00
2024-03-18T00:44:51.740Z,520.00
2024-03-18T00:45:51.715Z,525.00
2024-03-18T00:46:51.804Z,525.00
2024-03-18T00:47:51.848Z,527.00
2024-03-18T00:48:51.926Z,525.00
2024-03-18T00:49:52.046Z,525.00
2024-03-18T00:50:52.128Z,528.00
2024-03-18T00:51:52.189Z,529.00
2024-03-18T00:52:52.241Z,528.00
2024-03-18T00:53:52.311Z,526.00
2024-03-18T00:54:52.406Z,529.00
2024-03-18T00:55:52.499Z,526.00
2024-03-18T00:56:52.534Z,528.00
2024-03-18T00:57:52.614Z,528.00
2024-03-18T00:58:52.717Z,527.00
2024-03-18T00:59:52.799Z,528.00
2024-03-18T01:00:52.860Z,526.00
2024-03-18T01:01:52.930Z,527.00
2024-03-18T01:02:52.982Z,524.00
2024-03-18T01:03:53.095Z,527.00
2024-03-18T01:04:53.155Z,527.00
2024-03-18T01:05:53.204Z,525.00
2024-03-18T01:06:53.274Z,524.00
2024-03-18T01:07:53.420Z,523.00
2024-03-18T01:08:53.515Z,525.00
2024-03-18T01:09:53.576Z,526.00
2024-03-18T01:10:53.571Z,525.00
2024-03-18T01:11:53.630Z,521.00
2024-03-18T01:12:53.785Z,523.00
2024-03-18T01:13:53.775Z,525.00
2024-03-18T01:14:53.885Z,526.00
2024-03-18T01:15:53.933Z,528.00
2024-03-18T01:16:54.090Z,529.00
2024-03-18T01:17:54.112Z,527.00
2024-03-18T01:18:54.168Z,528.00
2024-03-18T01:19:54.261Z,526.00
2024-03-18T01:20:54.273Z,532.00
2024-03-18T01:21:54.338Z,531.00
2024-03-18T01:22:54.451Z,530.00
2024-03-18T01:23:54.505Z,529.00
2024-03-18T01:24:54.612Z,529.00
2024-03-18T01:25:54.630Z,526.00
2024-03-18T01:26:54.702Z,525.00
2024-03-18T01:27:54.797Z,526.00
2024-03-18T01:28:54.877Z,525.00
2024-03-18T01:29:54.949Z,526.00
2024-03-18T01:30:55.014Z,529.00
2024-03-18T01:31:55.075Z,528.00
2024-03-18T01:32:55.128Z,528.00
2024-03-18T01:33:55.250Z,526.00
2024-03-18T01:34:55.285Z,527.00
2024-03-18T01:35:55.376Z,527.00
2024-03-18T01:36:55.468Z,530.00
2024-03-18T01:37:55.519Z,527.00
2024-03-18T01:38:55.577Z,525.00
2024-03-18T01:39:55.691Z,525.00
2024-03-18T01:40:55.766Z,525.00
2024-03-18T01:41:55.803Z,526.00
2024-03-18T01:42:55.909Z,530.00
2024-03-18T01:43:55.955Z,529.00
2024-03-18T01:44:56.074Z,527.00
2024-03-18T01:45:56.135Z,527.00
2024-03-18T01:46:56.185Z,524.00
2024-03-18T01:47:56.258Z,523.00
2024-03-18T01:48:56.361Z,524.00
2024-03-18T01:49:56.434Z,522.00
2024-03-18T01:50:56.480Z,524.00
2024-03-18T01:51:56.595Z,525.00
2024-03-18T01:52:56.642Z,526.00
2024-03-18T01:53:56.701Z,525.00
2024-03-18T01:54:56.819Z,525.00
2024-03-18T01:55:56.851Z,523.00
2024-03-18T01:56:56.979Z,523.00
2024-03-18T01:57:57.044Z,523.00
2024-03-18T01:58:57.099Z,522.00
2024-03-18T01:59:57.208Z,524.00
2024-03-18T02:00:57.214Z,524.00
2024-03-18T02:01:57.318Z,526.00
2024-03-18T02:02:57.379Z,527.00
2024-03-18T02:03:57.440Z,528.00
2024-03-18T02:04:57.495Z,528.00
2024-03-18T02:05:57.605Z,529.00
2024-03-18T02:06:57.659Z,526.00
2024-03-18T02:07:57.722Z,528.00
2024-03-18T02:08:57.772Z,529.00
2024-03-18T02:09:57.867Z,530.00
2024-03-18T02:10:57.945Z,529.00
2024-03-18T02:11:58.004Z,527.00
2024-03-18T02:12:58.119Z,525.00
2024-03-18T02:13:58.141Z,525.00
2024-03-18T02:14:58.223Z,523.00
2024-03-18T02:15:58.287Z,524.00
2024-03-18T02:16:58.338Z,525.00
2024-03-18T02:17:58.397Z,527.00
2024-03-18T02:18:58.476Z,524.00
2024-03-18T02:19:58.566Z,525.00
2024-03-18T02:20:58.580Z,526.00
2024-03-18T02:21:58.693Z,528.00
2024-03-18T02:22:58.741Z,528.00
2024-03-18T02:23:58.818Z,528.00
2024-03-18T02:24:58.863Z,528.00
2024-03-18T02:25:58.921Z,528.00
2024-03-18T02:26:58.987Z,525.00
2024-03-18T02:27:59.054Z,523.00
2024-03-18T02:28:59.139Z,519.00
2024-03-18T02:29:59.241Z,521.00
2024-03-18T02:30:59.289Z,521.00
2024-03-18T02:31:59.359Z,520.00
2024-03-18T02:32:59.433Z,524.00
2024-03-18T02:33:59.465Z,524.00
2024-03-18T02:34:59.581Z,524.00
2024-03-18T02:35:59.658Z,523.00
2024-03-18T02:36:59.714Z,522.00
2024-03-18T02:37:59.758Z,522.00
2024-03-18T02:38:59.823Z,525.00
2024-03-18T02:39:59.919Z,527.00
2024-03-18T02:41:00.008Z,528.00
2024-03-18T02:42:00.030Z,530.00
2024-03-18T02:43:00.112Z,531.00
2024-03-18T02:44:00.179Z,529.00
2024-03-18T02:45:00.261Z,530.00
2024-03-18T02:46:00.342Z,524.00
2024-03-18T02:47:00.453Z,521.00
2024-03-18T02:48:00.551Z,521.00
2024-03-18T02:49:00.613Z,526.00
2024-03-18T02:50:00.674Z,525.00
2024-03-18T02:51:00.731Z,522.00
2024-03-18T02:52:00.790Z,522.00
2024-03-18T02:53:00.846Z,519.00
2024-03-18T02:54:00.950Z,519.00
2024-03-18T02:55:01.012Z,518.00
2024-03-18T02:56:01.087Z,518.00
2024-03-18T02:57:01.191Z,521.00
2024-03-18T02:58:01.244Z,523.00
2024-03-18T02:59:01.306Z,523.00
2024-03-18T03:00:01.385Z,521.00
2024-03-18T03:01:01.465Z,520.00
2024-03-18T03:02:01.603Z,523.00
2024-03-18T03:03:01.583Z,522.00
2024-03-18T03:04:01.667Z,526.00
2024-03-18T03:05:01.714Z,525.00
2024-03-18T03:06:01.779Z,526.00
2024-03-18T03:07:01.862Z,525.00
2024-03-18T03:08:01.915Z,525.00
2024-03-18T03:09:01.989Z,524.00
2024-03-18T03:10:02.155Z,522.00
2024-03-18T03:11:02.132Z,523.00
2024-03-18T03:12:02.201Z,522.00
2024-03-18T03:13:02.271Z,520.00
2024-03-18T03:14:02.329Z,519.00
2024-03-18T03:15:02.443Z,520.00
2024-03-18T03:16:02.519Z,521.00
2024-03-18T03:17:02.552Z,522.00
2024-03-18T03:18:03.347Z,521.00
2024-03-18T03:19:02.683Z,520.00
2024-03-18T03:20:02.763Z,518.00
2024-03-18T03:21:02.829Z,519.00
2024-03-18T03:22:02.898Z,520.00
2024-03-18T03:23:03.004Z,522.00
2024-03-18T03:24:03.053Z,521.00
2024-03-18T03:25:03.133Z,522.00
2024-03-18T03:26:03.234Z,518.00
2024-03-18T03:27:03.277Z,515.00
2024-03-18T03:28:03.361Z,518.00
2024-03-18T03:29:03.466Z,519.00
2024-03-18T03:30:05.060Z,519.00
2024-03-18T03:31:03.512Z,517.00
2024-03-18T03:32:03.568Z,515.00
2024-03-18T03:33:03.595Z,511.00
2024-03-18T03:34:03.594Z,514.00
2024-03-18T03:35:03.673Z,514.00
2024-03-18T03:36:03.669Z,517.00
2024-03-18T03:37:03.716Z,521.00
2024-03-18T03:38:03.744Z,521.00
2024-03-18T03:39:03.792Z,521.00
2024-03-18T03:40:03.900Z,519.00
2024-03-18T03:41:03.933Z,520.00
2024-03-18T03:42:03.991Z,519.00
2024-03-18T03:43:04.126Z,518.00
2024-03-18T03:44:04.150Z,515.00
2024-03-18T03:45:04.238Z,515.00
2024-03-18T03:46:04.338Z,516.00
2024-03-18T03:47:05.864Z,516.00
2024-03-18T03:48:04.667Z,517.00
2024-03-18T03:49:04.623Z,517.00
2024-03-18T03:50:04.683Z,514.00
2024-03-18T03:51:04.706Z,515.00
2024-03-18T03:52:04.726Z,517.00
2024-03-18T03:53:04.739Z,517.00
2024-03-18T03:54:04.742Z,515.00
2024-03-18T03:55:04.804Z,514.00
2024-03-18T03:56:04.815Z,513.00
2024-03-18T03:57:04.835Z,516.00
2024-03-18T03:58:05.452Z,517.00
2024-03-18T03:59:04.881Z,518.00
2024-03-18T04:00:06.625Z,515.00
2024-03-18T04:01:04.933Z,512.00
2024-03-18T04:02:04.965Z,513.00
2024-03-18T04:03:05.005Z,510.00
2024-03-18T04:04:05.012Z,509.00
2024-03-18T04:05:05.040Z,511.00
2024-03-18T04:06:05.090Z,514.00
2024-03-18T04:07:05.090Z,518.00
2024-03-18T04:08:05.101Z,518.00
2024-03-18T04:09:05.147Z,516.00
2024-03-18T04:10:05.279Z,514.00
2024-03-18T04:11:05.337Z,516.00
2024-03-18T04:12:05.432Z,513.00
2024-03-18T04:13:05.505Z,520.00
2024-03-18T04:14:05.549Z,520.00
2024-03-18T04:15:05.617Z,520.00
2024-03-18T04:16:05.729Z,521.00
2024-03-18T04:17:05.782Z,518.00
2024-03-18T04:18:05.840Z,514.00
2024-03-18T04:19:05.924Z,515.00
2024-03-18T04:20:06.049Z,516.00
2024-03-18T04:21:06.057Z,514.00
2024-03-18T04:22:06.117Z,513.00
2024-03-18T04:23:06.193Z,513.00
2024-03-18T04:24:06.292Z,518.00
2024-03-18T04:25:06.350Z,518.00
2024-03-18T04:26:06.465Z,517.00
2024-03-18T04:27:06.494Z,519.00
2024-03-18T04:28:06.604Z,521.00
2024-03-18T04:29:06.685Z,520.00
2024-03-18T04:30:07.093Z,524.00
2024-03-18T04:31:06.846Z,524.00
2024-03-18T04:32:06.915Z,523.00
2024-03-18T04:33:07.008Z,521.00
2024-03-18T04:34:07.116Z,522.00
2024-03-18T04:35:07.164Z,521.00
2024-03-18T04:36:07.251Z,520.00
2024-03-18T04:37:07.292Z,520.00
2024-03-18T04:38:07.389Z,522.00
2024-03-18T04:39:07.469Z,523.00
2024-03-18T04:40:07.507Z,525.00
2024-03-18T04:41:07.582Z,521.00
2024-03-18T04:42:07.692Z,517.00
2024-03-18T04:43:07.724Z,518.00
2024-03-18T04:44:07.799Z,521.00
2024-03-18T04:45:07.933Z,520.00
2024-03-18T04:46:07.967Z,520.00
2024-03-18T04:47:08.036Z,516.00
2024-03-18T04:48:08.080Z,518.00
2024-03-18T04:49:08.154Z,517.00
2024-03-18T04:50:08.258Z,515.00
2024-03-18T04:51:08.377Z,515.00
2024-03-18T04:52:08.369Z,518.00
2024-03-18T04:53:08.489Z,521.00
2024-03-18T04:54:08.517Z,521.00
2024-03-18T04:55:08.605Z,520.00
2024-03-18T04:56:08.647Z,524.00
2024-03-18T04:57:08.710Z,526.00
2024-03-18T04:58:08.767Z,526.00
2024-03-18T04:59:08.882Z,527.00
2024-03-18T05:00:08.944Z,527.00
2024-03-18T05:01:09.027Z,525.00
2024-03-18T05:02:09.101Z,526.00
2024-03-18T05:03:09.161Z,525.00
2024-03-18T05:04:09.222Z,523.00
2024-03-18T05:05:09.394Z,520.00
2024-03-18T05:06:09.415Z,520.00
2024-03-18T05:07:09.508Z,519.00
2024-03-18T05:08:09.561Z,519.00
2024-03-18T05:09:09.615Z,522.00
2024-03-18T05:10:09.771Z,523.00
2024-03-18T05:11:09.754Z,524.00
2024-03-18T05:12:09.851Z,527.00
2024-03-18T05:13:09.954Z,527.00
2024-03-18T05:14:09.994Z,525.00
2024-03-18T05:15:10.101Z,527.00
2024-03-18T05:16:10.179Z,526.00
2024-03-18T05:17:10.221Z,525.00
2024-03-18T05:18:10.307Z,528.00
2024-03-18T05:19:10.350Z,526.00
2024-03-18T05:20:10.456Z,525.00
2024-03-18T05:21:10.547Z,525.00
2024-03-18T05:22:10.591Z,526.00
2024-03-18T05:23:10.666Z,524.00
2024-03-18T05:24:10.757Z,523.00
2024-03-18T05:25:10.866Z,525.00
2024-03-18T05:26:10.920Z,525.00
2024-03-18T05:27:11.010Z,526.00
2024-03-18T05:28:11.066Z,525.00
2024-03-18T05:29:11.129Z,524.00
2024-03-18T05:30:11.184Z,522.00
2024-03-18T05:31:11.306Z,519.00
2024-03-18T05:32:11.340Z,523.00
2024-03-18T05:33:11.427Z,523.00
2024-03-18T05:34:11.485Z,524.00
2024-03-18T05:35:11.575Z,524.00
2024-03-18T05:36:11.638Z,524.00
2024-03-18T05:37:11.699Z,522.00
2024-03-18T05:38:11.807Z,525.00
2024-03-18T05:39:11.873Z,526.00
2024-03-18T05:40:11.978Z,525.00
2024-03-18T05:41:11.987Z,524.00
2024-03-18T05:42:12.092Z,524.00
2024-03-18T05:43:45.789Z,537.00
2024-03-18T05:44:45.792Z,533.00
2024-03-18T05:45:45.858Z,532.00
2024-03-18T05:46:45.870Z,529.00
2024-03-18T05:47:45.903Z,534.00
2024-03-18T05:48:45.872Z,535.00
2024-03-18T05:49:45.931Z,536.00
2024-03-18T05:50:45.929Z,534.00
2024-03-18T05:51:45.885Z,534.00
2024-03-18T05:52:45.885Z,531.00
2024-03-18T05:53:45.909Z,529.00
2024-03-18T05:54:45.920Z,529.00
2024-03-18T05:55:45.897Z,532.00
2024-03-18T05:56:45.891Z,532.00
2024-03-18T05:57:45.885Z,531.00
2024-03-18T05:58:45.892Z,532.00
2024-03-18T05:59:45.912Z,531.00
2024-03-18T06:00:45.903Z,528.00
2024-03-18T06:01:45.877Z,530.00
2024-03-18T06:02:45.923Z,531.00
2024-03-18T06:03:45.875Z,530.00
2024-03-18T06:04:45.924Z,531.00
2024-03-18T06:05:45.930Z,531.00
2024-03-18T06:06:46.018Z,532.00
2024-03-18T06:07:45.949Z,535.00
2024-03-18T06:08:45.914Z,536.00
2024-03-18T06:09:45.920Z,537.00
2024-03-18T06:10:45.981Z,537.00
2024-03-18T06:11:45.929Z,538.00
2024-03-18T06:12:45.926Z,539.00
2024-03-18T06:13:45.918Z,536.00
2024-03-18T06:14:45.916Z,534.00
2024-03-18T06:15:45.943Z,531.00
2024-03-18T06:16:45.936Z,531.00
2024-03-18T06:17:45.965Z,529.00
2024-03-18T06:18:45.924Z,529.00
2024-03-18T06:19:45.924Z,527.00
2024-03-18T06:20:45.953Z,528.00
2024-03-18T06:21:45.937Z,533.00
2024-03-18T06:22:45.940Z,535.00
2024-03-18T06:23:45.952Z,533.00
2024-03-18T06:24:46.925Z,534.00
2024-03-18T06:25:45.964Z,534.00
2024-03-18T06:26:46.008Z,535.00
2024-03-18T06:27:46.093Z,536.00
2024-03-18T06:28:46.156Z,536.00
2024-03-18T06:29:46.223Z,537.00
2024-03-18T06:30:46.315Z,537.00
2024-03-18T06:31:46.350Z,538.00
2024-03-18T06:32:46.434Z,538.00
2024-03-18T06:33:46.541Z,538.00
2024-03-18T06:34:50.036Z,538.00
2024-03-18T06:35:46.595Z,537.00
2024-03-18T06:36:46.565Z,617.00
2024-03-18T06:37:46.622Z,626.00
2024-03-18T06:38:46.564Z,630.00
2024-03-18T06:39:46.617Z,635.00
2024-03-18T06:40:46.574Z,642.00
2024-03-18T06:41:46.632Z,670.00
2024-03-18T06:42:46.610Z,685.00
2024-03-18T06:43:46.613Z,687.00
2024-03-18T06:44:46.578Z,784.00
2024-03-18T06:45:46.643Z,790.00
2024-03-18T06:46:46.561Z,763.00
2024-03-18T06:47:48.884Z,750.00
2024-03-18T06:48:46.558Z,816.00
2024-03-18T06:49:46.649Z,784.00
2024-03-18T06:50:46.570Z,774.00
2024-03-18T06:51:46.604Z,781.00
2024-03-18T06:52:46.613Z,775.00
2024-03-18T06:53:46.578Z,726.00
2024-03-18T06:54:46.606Z,730.00
2024-03-18T06:55:48.748Z,734.00
2024-03-18T06:56:46.591Z,725.00
2024-03-18T06:57:46.598Z,694.00
2024-03-18T06:58:46.640Z,673.00
2024-03-18T06:59:46.604Z,640.00
2024-03-18T07:00:46.653Z,638.00
2024-03-18T07:01:46.739Z,647.00
2024-03-18T07:02:46.759Z,661.00
2024-03-18T07:03:46.852Z,667.00
2024-03-18T07:04:46.898Z,669.00
2024-03-18T07:05:46.975Z,674.00
2024-03-18T07:06:47.016Z,676.00
2024-03-18T07:07:47.007Z,678.00
2024-03-18T07:08:47.034Z,686.00
2024-03-18T07:09:47.071Z,711.00
2024-03-18T07:10:47.142Z,777.00
2024-03-18T07:11:47.154Z,786.00
2024-03-18T07:12:47.194Z,827.00
2024-03-18T07:13:47.195Z,829.00
2024-03-18T07:14:47.226Z,829.00
2024-03-18T07:15:47.240Z,842.00
2024-03-18T07:16:47.324Z,868.00
2024-03-18T07:17:47.330Z,872.00
2024-03-18T07:18:47.381Z,890.00
2024-03-18T07:20:02.852Z,901.00
2024-03-18T07:20:48.845Z,939.00
2024-03-18T07:21:47.459Z,949.00
2024-03-18T07:22:47.462Z,956.00
2024-03-18T07:23:47.471Z,964.00
2024-03-18T07:24:47.442Z,986.00
2024-03-18T07:25:47.479Z,997.00
2024-03-18T07:26:47.525Z,1005.00
2024-03-18T07:27:47.509Z,1011.00
2024-03-18T07:28:47.485Z,1018.00
2024-03-18T07:29:47.482Z,1028.00
2024-03-18T07:30:47.577Z,1036.00
2024-03-18T07:31:47.623Z,1042.00
2024-03-18T07:32:47.680Z,1059.00
2024-03-18T07:33:47.699Z,1067.00
2024-03-18T07:34:49.567Z,1074.00
2024-03-18T07:35:47.833Z,1091.00
2024-03-18T07:36:47.872Z,1100.00
2024-03-18T07:37:47.818Z,1106.00
2024-03-18T07:38:47.877Z,1114.00
2024-03-18T07:39:47.820Z,1134.00
2024-03-18T07:40:47.815Z,1141.00
2024-03-18T07:41:47.855Z,1152.00
2024-03-18T07:42:47.844Z,1163.00
2024-03-18T07:43:47.894Z,1169.00
2024-03-18T07:44:47.806Z,1193.00
2024-03-18T07:45:47.898Z,1201.00
2024-03-18T07:46:47.862Z,1203.00
2024-03-18T07:47:47.837Z,1200.00
2024-03-18T07:48:47.874Z,1120.00
2024-03-18T07:49:47.844Z,1141.00
2024-03-18T07:50:47.913Z,1158.00
2024-03-18T07:51:47.862Z,1172.00
2024-03-18T07:52:47.907Z,1176.00
2024-03-18T07:53:47.903Z,1185.00
2024-03-18T07:54:47.904Z,1184.00
2024-03-18T07:55:47.918Z,1189.00
2024-03-18T07:56:47.941Z,1200.00
2024-03-18T07:57:48.090Z,1225.00
2024-03-18T07:58:47.916Z,1266.00
2024-03-18T07:59:47.883Z,1273.00
2024-03-18T08:00:47.930Z,1278.00
2024-03-18T08:01:47.929Z,1293.00
2024-03-18T08:02:47.961Z,1304.00
2024-03-18T08:03:47.918Z,1303.00
2024-03-18T08:04:47.942Z,1296.00
2024-03-18T08:05:47.928Z,1307.00
2024-03-18T08:06:47.892Z,1310.00
2024-03-18T08:07:47.903Z,1319.00
2024-03-18T08:08:47.999Z,1327.00
2024-03-18T08:09:48.118Z,1334.00
2024-03-18T08:10:49.684Z,1339.00
2024-03-18T08:11:48.247Z,1346.00
2024-03-18T08:12:48.309Z,1347.00
2024-03-18T08:13:48.303Z,1347.00
2024-03-18T08:14:48.424Z,1352.00
2024-03-18T08:15:48.552Z,1358.00
2024-03-18T08:16:48.643Z,1363.00
2024-03-18T08:17:48.790Z,1367.00
2024-03-18T08:18:48.837Z,1367.00
2024-03-18T08:19:49.007Z,1372.00
2024-03-18T08:20:50.812Z,1377.00
2024-03-18T08:21:49.149Z,1376.00
2024-03-18T08:22:49.203Z,1382.00
2024-03-18T08:23:49.246Z,1387.00
2024-03-18T08:24:49.240Z,1392.00
2024-03-18T08:25:49.316Z,1396.00
2024-03-18T08:26:49.325Z,1413.00
2024-03-18T08:27:49.375Z,1409.00
2024-03-18T08:28:49.424Z,1419.00
2024-03-18T08:29:49.537Z,1432.00
2024-03-18T08:30:49.590Z,1448.00
2024-03-18T08:31:49.695Z,1466.00
2024-03-18T08:33:03.509Z,1470.00
2024-03-18T08:34:04.342Z,1484.00
2024-03-18T08:34:50.851Z,1495.00
2024-03-18T08:35:49.865Z,1511.00
2024-03-18T08:36:49.848Z,1520.00
2024-03-18T08:37:49.903Z,1536.00
2024-03-18T08:38:49.858Z,1552.00
2024-03-18T08:39:50.627Z,1565.00
2024-03-18T08:40:49.867Z,1583.00
2024-03-18T08:41:49.945Z,1588.00
2024-03-18T08:42:49.904Z,1578.00
2024-03-18T08:43:49.923Z,1290.00
2024-03-18T08:44:49.859Z,1244.00
2024-03-18T08:45:49.872Z,1061.00
2024-03-18T08:46:49.847Z,1034.00
2024-03-18T08:47:49.887Z,966.00
2024-03-18T08:48:49.864Z,1008.00
2024-03-18T08:49:49.873Z,894.00
2024-03-18T08:50:49.946Z,751.00
2024-03-18T08:51:49.899Z,730.00
2024-03-18T08:52:49.859Z,732.00
2024-03-18T08:53:49.852Z,793.00
2024-03-18T08:54:49.858Z,772.00
2024-03-18T08:55:49.893Z,771.00
2024-03-18T08:56:49.877Z,767.00
2024-03-18T08:57:49.898Z,782.00
2024-03-18T08:58:51.674Z,805.00
2024-03-18T08:59:50.018Z,776.00
2024-03-18T09:00:50.075Z,761.00
2024-03-18T09:01:50.069Z,737.00
2024-03-18T09:02:50.203Z,735.00
2024-03-18T09:03:50.190Z,729.00
2024-03-18T09:04:50.198Z,732.00
2024-03-18T09:05:50.196Z,730.00
2024-03-18T09:06:50.272Z,726.00
2024-03-18T09:07:50.314Z,719.00
2024-03-18T09:08:50.425Z,713.00
2024-03-18T09:09:50.478Z,719.00
2024-03-18T09:10:50.645Z,804.00
2024-03-18T09:11:50.650Z,835.00
2024-03-18T09:12:50.698Z,864.00
2024-03-18T09:13:50.753Z,883.00
2024-03-18T09:14:50.872Z,897.00
2024-03-18T09:15:50.979Z,906.00
2024-03-18T09:16:51.005Z,914.00
2024-03-18T09:17:52.998Z,928.00
2024-03-18T09:18:51.299Z,938.00
2024-03-18T09:19:51.359Z,948.00
2024-03-18T09:20:51.415Z,955.00
2024-03-18T09:21:51.482Z,976.00
2024-03-18T09:22:51.530Z,990.00
2024-03-18T09:23:51.555Z,1011.00
2024-03-18T09:24:52.489Z,1021.00
2024-03-18T09:25:51.624Z,1039.00
2024-03-18T09:26:51.630Z,1053.00
2024-03-18T09:27:51.653Z,1070.00
2024-03-18T09:28:51.814Z,1097.00
2024-03-18T09:29:51.694Z,1112.00
2024-03-18T09:30:51.846Z,1124.00
2024-03-18T09:31:51.941Z,1138.00
2024-03-18T09:32:52.941Z,1160.00
2024-03-18T09:33:52.126Z,1173.00
2024-03-18T09:35:44.953Z,1232.00
2024-03-18T09:36:43.803Z,1231.00
2024-03-18T09:37:43.818Z,1325.00
2024-03-18T09:38:43.757Z,1262.00
2024-03-18T09:39:43.903Z,1365.00
2024-03-18T09:40:43.773Z,1402.00
2024-03-18T09:41:45.547Z,1448.00
2024-03-18T09:42:43.822Z,1500.00
2024-03-18T09:43:43.813Z,1294.00
2024-03-18T09:44:43.802Z,1082.00
2024-03-18T09:45:43.804Z,1012.00
2024-03-18T09:46:43.780Z,1233.00
2024-03-18T09:47:46.385Z,1275.00
2024-03-18T09:48:43.769Z,1081.00
2024-03-18T09:49:43.789Z,1067.00
2024-03-18T09:50:43.895Z,1116.00
2024-03-18T09:51:43.854Z,1163.00
2024-03-18T09:52:43.860Z,1178.00
2024-03-18T09:53:43.812Z,1176.00
2024-03-18T09:54:43.867Z,1156.00
2024-03-18T09:55:43.837Z,1148.00
2024-03-18T09:56:43.827Z,1138.00
2024-03-18T09:57:43.848Z,1113.00
2024-03-18T09:58:43.792Z,1079.00
2024-03-18T09:59:43.813Z,1077.00
2024-03-18T10:00:43.809Z,1046.00
2024-03-18T10:01:43.824Z,1034.00
2024-03-18T10:02:43.866Z,1031.00
2024-03-18T10:03:43.828Z,1026.00
2024-03-18T10:04:43.835Z,1018.00
2024-03-18T10:05:43.837Z,1007.00
2024-03-18T10:06:43.855Z,1008.00
2024-03-18T10:07:43.907Z,1004.00
2024-03-18T10:08:43.914Z,987.00
2024-03-18T10:09:44.932Z,983.00
2024-03-18T10:10:44.084Z,969.00
2024-03-18T10:11:44.088Z,963.00
2024-03-18T10:12:44.115Z,965.00
2024-03-18T10:13:44.196Z,961.00
2024-03-18T10:14:44.213Z,956.00
2024-03-18T10:15:45.394Z,957.00
2024-03-18T10:16:44.271Z,966.00
2024-03-18T10:17:44.287Z,962.00
2024-03-18T10:18:44.284Z,953.00
2024-03-18T10:19:44.306Z,1021.00
2024-03-18T10:20:44.303Z,988.00
2024-03-18T10:21:44.369Z,974.00
2024-03-18T10:22:44.320Z,963.00
2024-03-18T10:23:44.327Z,956.00
2024-03-18T10:24:44.295Z,951.00
2024-03-18T10:25:44.349Z,944.00
2024-03-18T10:26:44.365Z,941.00
2024-03-18T10:27:46.871Z,935.00
2024-03-18T10:28:44.329Z,928.00
2024-03-18T10:29:44.329Z,921.00
2024-03-18T10:30:44.367Z,917.00
2024-03-18T10:31:44.334Z,918.00
2024-03-18T10:32:44.339Z,915.00
2024-03-18T10:33:44.359Z,912.00
2024-03-18T10:34:44.361Z,906.00
2024-03-18T10:35:44.350Z,904.00
2024-03-18T10:36:53.186Z,898.00
2024-03-18T10:37:45.345Z,899.00
2024-03-18T10:38:44.435Z,896.00
2024-03-18T10:39:44.378Z,895.00
2024-03-18T10:40:44.383Z,906.00
2024-03-18T10:41:44.423Z,982.00
2024-03-18T10:42:44.393Z,1006.00
2024-03-18T10:43:46.404Z,1014.00
2024-03-18T10:44:44.454Z,1006.00
2024-03-18T10:45:44.419Z,982.00
2024-03-18T10:46:44.526Z,1001.00
2024-03-18T10:47:44.586Z,1003.00
2024-03-18T10:48:44.680Z,955.00
2024-03-18T10:49:46.468Z,875.00
2024-03-18T10:50:44.658Z,811.00
2024-03-18T10:51:44.684Z,873.00
2024-03-18T10:52:44.678Z,866.00
2024-03-18T10:53:52.972Z,813.00
2024-03-18T10:54:45.657Z,804.00
2024-03-18T10:55:44.693Z,769.00
2024-03-18T10:56:44.695Z,941.00
2024-03-18T10:57:44.764Z,3498.00
2024-03-18T10:58:44.673Z,816.00
2024-03-18T10:59:44.720Z,819.00
2024-03-18T11:00:44.659Z,866.00
2024-03-18T11:01:44.704Z,762.00
2024-03-18T11:02:44.693Z,813.00
2024-03-18T11:03:44.679Z,744.00
2024-03-18T11:04:44.718Z,823.00
2024-03-18T11:05:44.855Z,865.00
2024-03-18T11:06:44.851Z,841.00
2024-03-18T11:07:44.961Z,779.00
2024-03-18T11:08:45.005Z,814.00
2024-03-18T11:09:45.158Z,825.00
2024-03-18T11:10:45.114Z,987.00
2024-03-18T11:11:47.159Z,993.00
2024-03-18T11:12:45.157Z,766.00
2024-03-18T11:13:45.214Z,765.00
2024-03-18T11:14:45.228Z,761.00
2024-03-18T11:15:45.267Z,857.00
2024-03-18T11:16:45.342Z,772.00
2024-03-18T11:17:45.309Z,780.00
2024-03-18T11:18:45.496Z,779.00
2024-03-18T11:19:45.422Z,749.00
2024-03-18T11:20:45.539Z,828.00
2024-03-18T11:21:45.568Z,812.00
2024-03-18T11:22:45.641Z,871.00
2024-03-18T11:23:45.658Z,821.00
2024-03-18T11:24:45.738Z,790.00
2024-03-18T11:25:45.786Z,758.00
2024-03-18T11:26:45.904Z,776.00
2024-03-18T11:27:47.415Z,836.00
2024-03-18T11:28:46.016Z,816.00
2024-03-18T11:29:46.021Z,896.00
2024-03-18T11:30:46.060Z,860.00
2024-03-18T11:31:46.137Z,858.00
2024-03-18T11:32:46.213Z,1736.00
2024-03-18T11:33:47.452Z,835.00
2024-03-18T11:34:46.303Z,811.00
2024-03-18T11:35:46.364Z,806.00
2024-03-18T11:36:46.428Z,834.00
2024-03-18T11:37:46.520Z,857.00
2024-03-18T11:38:46.670Z,863.00
2024-03-18T11:39:46.707Z,888.00
2024-03-18T11:40:46.834Z,921.00
2024-03-18T11:41:46.979Z,1305.00
2024-03-18T11:42:47.013Z,1035.00
2024-03-18T11:43:47.105Z,1231.00
2024-03-18T11:44:47.287Z,1005.00
2024-03-18T11:45:47.564Z,1010.00
2024-03-18T11:46:47.480Z,819.00
2024-03-18T11:47:47.511Z,881.00
2024-03-18T11:48:47.624Z,1020.00
2024-03-18T11:49:47.679Z,1023.00
2024-03-18T11:50:47.829Z,1006.00
2024-03-18T11:51:47.908Z,962.00
2024-03-18T11:52:47.963Z,968.00
2024-03-18T11:53:48.128Z,1050.00
2024-03-18T11:54:48.198Z,1038.00
2024-03-18T11:55:48.297Z,1033.00
2024-03-18T11:56:48.398Z,909.00
2024-03-18T11:57:48.517Z,991.00
2024-03-18T11:58:48.619Z,1038.00
2024-03-18T11:59:48.708Z,1047.00
2024-03-18T12:00:48.819Z,1060.00
2024-03-18T12:01:48.950Z,1063.00
2024-03-18T12:02:49.006Z,1064.00
2024-03-18T12:03:49.127Z,1005.00
2024-03-18T12:04:49.265Z,959.00
2024-03-18T12:05:49.344Z,917.00
2024-03-18T12:06:49.490Z,1040.00
2024-03-18T12:07:49.572Z,818.00
2024-03-18T12:08:49.665Z,911.00
2024-03-18T12:09:49.783Z,944.00
2024-03-18T12:10:49.874Z,1023.00
2024-03-18T12:11:49.996Z,1005.00
2024-03-18T12:12:50.104Z,1009.00
2024-03-18T12:13:50.167Z,953.00
2024-03-18T12:14:50.278Z,899.00
2024-03-18T12:15:50.409Z,1008.00
2024-03-18T12:16:50.491Z,960.00
2024-03-18T12:17:50.581Z,817.00
2024-03-18T12:18:50.675Z,901.00
2024-03-18T12:19:50.810Z,889.00
2024-03-18T12:20:50.877Z,984.00
2024-03-18T12:21:51.037Z,982.00
2024-03-18T12:22:51.088Z,1028.00
2024-03-18T12:23:51.237Z,861.00
2024-03-18T12:24:51.324Z,958.00
2024-03-18T12:25:51.436Z,957.00